createdAt,value
2022-12-05T00:02:06.762Z,5.18
2022-12-05T00:04:36.633Z,5.41
2022-12-05T00:07:06.184Z,5.26
2022-12-05T00:09:35.704Z,5.36
2022-12-05T00:12:05.706Z,5.38
2022-12-05T00:14:35.225Z,5.44
2022-12-05T00:17:04.737Z,5.42
2022-12-05T00:19:34.211Z,5.29
2022-12-05T00:22:03.626Z,5.37
2022-12-05T00:24:33.120Z,5.30
2022-12-05T00:27:02.687Z,5.32
2022-12-05T00:29:32.163Z,5.35
2022-12-05T00:32:01.807Z,5.19
2022-12-05T00:34:31.299Z,5.19
2022-12-05T00:36:59.913Z,5.22
2022-12-05T00:39:29.363Z,5.23
2022-12-05T00:41:58.854Z,5.20
2022-12-05T00:44:28.349Z,5.07
2022-12-05T00:46:57.850Z,5.22
2022-12-05T00:49:27.384Z,5.25
2022-12-05T00:51:56.875Z,5.01
2022-12-05T00:54:26.266Z,5.05
2022-12-05T00:56:56.492Z,5.00
2022-12-05T00:59:26.224Z,5.17
2022-12-05T01:01:55.696Z,5.26
2022-12-05T01:04:26.492Z,5.26
2022-12-05T01:06:58.806Z,5.25
2022-12-05T01:09:28.359Z,5.04
2022-12-05T01:11:58.095Z,5.15
2022-12-05T01:14:28.211Z,5.27
2022-12-05T01:16:58.224Z,5.05
2022-12-05T01:19:31.387Z,5.19
2022-12-05T01:22:01.395Z,5.00
2022-12-05T01:24:31.530Z,5.09
2022-12-05T01:27:01.004Z,5.27
2022-12-05T01:29:30.471Z,5.23
2022-12-05T01:32:00.003Z,5.13
2022-12-05T01:34:29.590Z,5.05
2022-12-05T01:36:59.039Z,5.06
2022-12-05T01:39:27.775Z,5.14
2022-12-05T01:41:57.660Z,5.06
2022-12-05T01:44:26.994Z,5.21
2022-12-05T01:46:56.975Z,5.18
2022-12-05T01:49:41.476Z,5.17
2022-12-05T01:52:20.273Z,5.13
2022-12-05T01:54:52.109Z,4.96
2022-12-05T01:57:20.838Z,5.11
2022-12-05T01:59:56.234Z,4.98
2022-12-05T02:02:24.537Z,5.01
2022-12-05T02:05:20.574Z,4.95
2022-12-05T02:07:48.698Z,4.90
2022-12-05T02:10:18.067Z,4.98
2022-12-05T02:12:47.926Z,5.04
2022-12-05T02:15:39.886Z,4.96
2022-12-05T02:18:55.087Z,4.84
2022-12-05T02:21:49.908Z,4.96
2022-12-05T02:24:53.036Z,4.95
2022-12-05T02:28:30.719Z,5.04
2022-12-05T02:31:30.246Z,4.98
2022-12-05T02:34:32.031Z,4.96
2022-12-05T02:37:16.724Z,5.01
2022-12-05T02:40:34.893Z,4.81
2022-12-05T02:43:22.469Z,4.75
2022-12-05T02:46:00.164Z,4.87
2022-12-05T02:48:30.310Z,4.94
2022-12-05T02:51:00.904Z,4.98
2022-12-05T02:53:32.132Z,4.86
2022-12-05T02:55:59.971Z,4.72
2022-12-05T02:58:42.408Z,4.82
2022-12-05T03:01:11.515Z,5.04
2022-12-05T03:03:39.366Z,5.04
2022-12-05T03:06:20.611Z,4.94
2022-12-05T03:08:59.365Z,4.92
2022-12-05T03:11:38.785Z,5.04
2022-12-05T03:14:16.984Z,4.95
2022-12-05T03:16:54.313Z,4.78
2022-12-05T03:19:37.955Z,4.83
2022-12-05T03:22:54.263Z,4.91
2022-12-05T03:25:36.358Z,4.85
2022-12-05T03:28:32.590Z,4.85
2022-12-05T03:31:12.413Z,4.90
2022-12-05T03:33:50.893Z,5.05
2022-12-05T03:36:29.537Z,4.84
2022-12-05T03:39:20.931Z,4.89
2022-12-05T03:42:13.461Z,4.77
2022-12-05T03:45:00.852Z,4.90
2022-12-05T03:48:35.036Z,4.90
2022-12-05T03:51:08.330Z,4.84
2022-12-05T03:53:52.368Z,4.89
2022-12-05T03:56:39.763Z,4.91
2022-12-05T03:59:35.604Z,5.00
2022-12-05T04:02:50.378Z,4.86
2022-12-05T04:05:51.252Z,4.87
2022-12-05T04:08:33.702Z,4.76
2022-12-05T04:11:16.500Z,4.76
2022-12-05T04:14:05.426Z,4.85
2022-12-05T04:17:03.861Z,4.80
2022-12-05T04:20:20.786Z,4.83
2022-12-05T04:22:48.681Z,4.93
2022-12-05T04:25:33.952Z,4.82
2022-12-05T04:28:55.602Z,5.05
2022-12-05T04:31:42.605Z,4.82
2022-12-05T04:34:16.598Z,5.00
2022-12-05T04:36:57.764Z,4.95
2022-12-05T04:40:00.281Z,4.85
2022-12-05T04:42:33.385Z,4.92
2022-12-05T04:45:14.026Z,4.74
2022-12-05T04:47:53.842Z,4.91
2022-12-05T04:50:25.423Z,4.85
2022-12-05T04:52:57.883Z,4.96
2022-12-05T04:55:29.684Z,4.94
2022-12-05T04:58:20.713Z,4.88
2022-12-05T05:01:08.052Z,4.94
2022-12-05T05:04:00.885Z,4.82
2022-12-05T05:06:30.852Z,4.81
2022-12-05T05:08:59.950Z,4.97
2022-12-05T05:11:34.372Z,5.03
2022-12-05T05:14:04.881Z,4.98
2022-12-05T05:16:40.631Z,5.01
2022-12-05T05:19:12.171Z,5.03
2022-12-05T05:21:42.570Z,4.99
2022-12-05T05:24:12.904Z,4.93
2022-12-05T05:26:44.957Z,4.98
2022-12-05T05:29:18.078Z,5.02
2022-12-05T05:31:46.877Z,4.94
2022-12-05T05:34:16.264Z,4.86
2022-12-05T05:36:44.982Z,4.84
2022-12-05T05:39:16.753Z,4.92
2022-12-05T05:41:45.403Z,4.80
2022-12-05T05:44:14.841Z,4.94
2022-12-05T05:46:44.340Z,4.68
2022-12-05T05:49:12.120Z,4.78
2022-12-05T05:51:39.817Z,4.79
2022-12-05T05:54:07.543Z,4.72
2022-12-05T05:56:36.178Z,4.83
2022-12-05T05:59:05.476Z,4.86
2022-12-05T06:01:34.130Z,4.82
2022-12-05T06:04:01.989Z,4.86
2022-12-05T06:06:30.712Z,4.95
2022-12-05T06:09:00.256Z,4.79
2022-12-05T06:11:29.396Z,4.92
2022-12-05T06:14:04.025Z,4.92
2022-12-05T06:16:33.096Z,4.83
2022-12-05T06:19:02.607Z,4.90
2022-12-05T06:21:32.057Z,5.04
2022-12-05T06:24:01.800Z,4.75
2022-12-05T06:26:29.524Z,4.87
2022-12-05T06:28:57.414Z,4.90
2022-12-05T06:31:28.676Z,4.95
2022-12-05T06:34:03.074Z,4.90
2022-12-05T06:36:32.389Z,5.02
2022-12-05T06:39:01.453Z,5.01
2022-12-05T06:41:30.098Z,5.14
2022-12-05T06:44:02.292Z,5.04
2022-12-05T06:46:31.023Z,4.91
2022-12-05T06:49:00.329Z,4.98
2022-12-05T06:51:29.129Z,4.99
2022-12-05T06:53:59.206Z,5.01
2022-12-05T06:56:28.774Z,5.09
2022-12-05T06:58:57.438Z,5.08
2022-12-05T07:01:42.301Z,4.91
2022-12-05T07:04:24.645Z,4.95
2022-12-05T07:06:55.423Z,5.03
2022-12-05T07:09:44.622Z,4.97
2022-12-05T07:12:16.421Z,5.13
2022-12-05T07:14:48.063Z,5.04
2022-12-05T07:17:20.156Z,5.01
2022-12-05T07:19:50.883Z,5.03
2022-12-05T07:22:23.021Z,5.11
2022-12-05T07:24:53.667Z,5.24
2022-12-05T07:27:27.255Z,5.21
2022-12-05T07:29:57.538Z,5.28
2022-12-05T07:32:26.716Z,5.26
2022-12-05T07:34:55.635Z,5.34
2022-12-05T07:37:24.653Z,5.33
2022-12-05T07:39:54.328Z,5.35
2022-12-05T07:42:23.017Z,5.41
2022-12-05T07:44:51.739Z,5.51
2022-12-05T07:47:21.323Z,5.31
2022-12-05T07:49:49.125Z,5.34
2022-12-05T07:52:17.735Z,5.37
2022-12-05T07:54:45.514Z,5.33
2022-12-05T07:57:14.215Z,5.43
2022-12-05T07:59:41.933Z,5.42
2022-12-05T08:02:11.502Z,5.43
2022-12-05T08:04:40.160Z,5.58
2022-12-05T08:07:11.660Z,5.49
2022-12-05T08:09:40.291Z,5.36
2022-12-05T08:12:09.009Z,5.45
2022-12-05T08:14:36.816Z,5.73
2022-12-05T08:17:06.441Z,5.66
2022-12-05T08:19:35.096Z,5.41
2022-12-05T08:22:02.812Z,5.48
2022-12-05T08:24:31.545Z,5.32
2022-12-05T08:27:00.427Z,5.55
2022-12-05T08:29:29.179Z,5.70
2022-12-05T08:31:58.901Z,5.64
2022-12-05T08:34:27.573Z,5.71
2022-12-05T08:36:57.000Z,5.71
2022-12-05T08:39:27.496Z,5.66
2022-12-05T08:41:57.027Z,5.66
2022-12-05T08:44:25.743Z,5.59
2022-12-05T08:46:55.190Z,5.74
2022-12-05T08:49:24.669Z,5.77
2022-12-05T08:51:53.278Z,5.93
2022-12-05T08:54:22.762Z,5.81
2022-12-05T08:56:53.010Z,5.74
2022-12-05T08:59:22.537Z,5.94
2022-12-05T09:01:52.014Z,5.79
2022-12-05T09:04:21.540Z,5.92
2022-12-05T09:06:51.877Z,5.86
2022-12-05T09:09:23.340Z,6.00
2022-12-05T09:11:53.844Z,6.04
2022-12-05T09:14:24.483Z,6.11
2022-12-05T09:16:53.170Z,6.01
2022-12-05T09:19:24.235Z,6.12
2022-12-05T09:21:54.389Z,6.33
2022-12-05T09:24:23.278Z,6.19
2022-12-05T09:26:52.805Z,6.50
2022-12-05T09:29:22.418Z,6.44
2022-12-05T09:31:52.358Z,6.58
2022-12-05T09:34:21.882Z,6.49
2022-12-05T09:37:01.375Z,6.65
2022-12-05T09:39:40.029Z,6.71
2022-12-05T09:42:32.570Z,6.69
2022-12-05T09:45:24.750Z,6.62
2022-12-05T09:48:15.800Z,6.80
2022-12-05T09:50:53.869Z,7.00
2022-12-05T09:53:40.243Z,6.82
2022-12-05T09:56:33.512Z,6.76
2022-12-05T09:59:02.205Z,6.88
2022-12-05T10:01:39.091Z,6.76
2022-12-05T10:04:35.745Z,6.80
2022-12-05T10:07:36.820Z,6.75
2022-12-05T10:10:38.981Z,6.53
2022-12-05T10:13:45.336Z,6.60
2022-12-05T10:16:31.732Z,6.72
2022-12-05T10:19:15.125Z,6.54
2022-12-05T10:22:13.699Z,6.82
2022-12-05T10:25:00.491Z,6.86
2022-12-05T10:27:40.529Z,6.99
2022-12-05T10:30:25.532Z,6.69
2022-12-05T10:33:06.408Z,6.84
2022-12-05T10:35:41.609Z,7.02
2022-12-05T10:38:24.507Z,7.03
2022-12-05T10:40:59.322Z,6.93
2022-12-05T10:43:32.677Z,6.99
2022-12-05T10:46:03.566Z,7.10
2022-12-05T10:48:39.403Z,7.02
2022-12-05T10:51:20.577Z,7.01
2022-12-05T10:53:52.786Z,6.94
2022-12-05T10:56:50.509Z,6.94
2022-12-05T10:59:26.656Z,6.86
2022-12-05T11:01:59.819Z,6.88
2022-12-05T11:04:44.273Z,6.91
2022-12-05T11:07:53.301Z,6.75
2022-12-05T11:10:37.801Z,6.94
2022-12-05T11:13:26.012Z,7.22
2022-12-05T11:15:55.892Z,7.48
2022-12-05T11:18:34.654Z,7.43
2022-12-05T11:21:14.684Z,7.34
2022-12-05T11:23:43.432Z,7.15
2022-12-05T11:26:36.894Z,7.22
2022-12-05T11:29:32.053Z,7.47
2022-12-05T11:32:00.749Z,7.44
2022-12-05T11:34:45.741Z,7.47
2022-12-05T11:37:33.023Z,7.49
2022-12-05T11:40:03.803Z,7.47
2022-12-05T11:42:48.039Z,7.53
2022-12-05T11:45:59.612Z,7.51
2022-12-05T11:49:01.005Z,7.72
2022-12-05T11:52:32.057Z,7.52
2022-12-05T11:55:22.441Z,7.75
2022-12-05T11:58:35.004Z,7.55
2022-12-05T12:01:42.297Z,7.53
2022-12-05T12:04:53.008Z,7.61
2022-12-05T12:08:13.174Z,7.39
2022-12-05T12:11:14.163Z,7.05
2022-12-05T12:14:25.436Z,7.34
2022-12-05T12:17:34.993Z,7.42
2022-12-05T12:20:39.988Z,7.27
2022-12-05T12:23:42.839Z,7.69
2022-12-05T12:27:29.041Z,7.63
2022-12-05T12:30:30.041Z,7.75
2022-12-05T12:33:16.808Z,7.46
2022-12-05T12:36:24.387Z,7.60
2022-12-05T12:39:29.678Z,7.69
2022-12-05T12:42:08.098Z,7.65
2022-12-05T12:45:02.415Z,7.95
2022-12-05T12:48:09.661Z,7.98
2022-12-05T12:50:44.488Z,7.92
2022-12-05T12:53:50.959Z,7.78
2022-12-05T12:56:54.115Z,7.75
2022-12-05T13:00:09.538Z,8.23
2022-12-05T13:03:04.305Z,8.02
2022-12-05T13:05:44.931Z,7.84
2022-12-05T13:08:28.800Z,8.02
2022-12-05T13:11:01.854Z,8.03
2022-12-05T13:13:39.398Z,7.89
2022-12-05T13:16:13.012Z,7.90
2022-12-05T13:18:42.447Z,7.89
2022-12-05T13:21:12.345Z,7.86
2022-12-05T13:23:56.096Z,7.96
2022-12-05T13:26:25.882Z,7.74
2022-12-05T13:28:58.513Z,7.90
2022-12-05T13:31:43.878Z,7.91
2022-12-05T13:34:29.547Z,7.86
2022-12-05T13:37:19.312Z,7.73
2022-12-05T13:40:14.268Z,7.95
2022-12-05T13:42:45.102Z,7.95
2022-12-05T13:45:20.947Z,7.83
2022-12-05T13:48:13.840Z,7.80
2022-12-05T13:50:54.623Z,7.61
2022-12-05T13:53:41.419Z,7.75
2022-12-05T13:56:15.876Z,7.86
2022-12-05T13:58:55.666Z,7.96
2022-12-05T14:01:36.976Z,7.85
2022-12-05T14:04:51.106Z,7.77
2022-12-05T14:07:44.843Z,7.78
2022-12-05T14:10:43.252Z,7.79
2022-12-05T14:13:18.101Z,7.58
2022-12-05T14:15:49.076Z,7.81
2022-12-05T14:18:59.673Z,7.70
2022-12-05T14:21:49.260Z,7.46
2022-12-05T14:24:53.466Z,7.55
2022-12-05T14:27:59.809Z,7.68
2022-12-05T14:30:47.845Z,7.44
2022-12-05T14:33:18.663Z,7.58
2022-12-05T14:35:52.121Z,7.43
2022-12-05T14:38:30.710Z,7.31
2022-12-05T14:41:31.445Z,7.59
2022-12-05T14:44:08.320Z,7.58
2022-12-05T14:46:38.314Z,7.52
2022-12-05T14:49:58.005Z,7.58
2022-12-05T14:52:30.818Z,7.51
2022-12-05T14:55:10.348Z,7.42
2022-12-05T14:57:49.455Z,7.42
2022-12-05T15:00:23.933Z,7.64
2022-12-05T15:02:56.154Z,7.40
2022-12-05T15:05:33.405Z,7.45
2022-12-05T15:08:05.747Z,7.28
2022-12-05T15:10:39.176Z,7.35
2022-12-05T15:13:23.109Z,7.48
2022-12-05T15:16:14.623Z,7.34
2022-12-05T15:18:51.014Z,7.50
2022-12-05T15:21:37.395Z,7.42
2022-12-05T15:24:17.618Z,7.54
2022-12-05T15:26:58.531Z,7.22
2022-12-05T15:29:32.875Z,7.30
2022-12-05T15:32:11.640Z,7.50
2022-12-05T15:35:00.360Z,7.61
2022-12-05T15:37:56.279Z,7.68
2022-12-05T15:40:26.771Z,7.49
2022-12-05T15:42:58.063Z,7.41
2022-12-05T15:45:30.740Z,7.46
2022-12-05T15:48:09.128Z,7.46
2022-12-05T15:50:47.276Z,7.31
2022-12-05T15:53:27.587Z,7.34
2022-12-05T15:56:36.324Z,7.25
2022-12-05T15:59:24.045Z,7.30
2022-12-05T16:02:16.157Z,7.24
2022-12-05T16:04:54.863Z,7.11
2022-12-05T16:07:29.295Z,7.16
2022-12-05T16:10:02.570Z,7.19
2022-12-05T16:12:40.189Z,7.08
2022-12-05T16:15:25.430Z,7.05
2022-12-05T16:18:02.518Z,7.09
2022-12-05T16:20:36.767Z,7.16
2022-12-05T16:23:27.660Z,7.22
2022-12-05T16:26:22.414Z,7.21
2022-12-05T16:29:01.598Z,7.10
2022-12-05T16:31:33.780Z,7.02
2022-12-05T16:34:12.992Z,7.23
2022-12-05T16:36:51.265Z,7.17
2022-12-05T16:39:22.572Z,7.18
2022-12-05T16:41:52.599Z,7.12
2022-12-05T16:44:45.702Z,6.98
2022-12-05T16:47:58.949Z,6.85
2022-12-05T16:50:36.159Z,6.94
2022-12-05T16:53:23.026Z,7.07
2022-12-05T16:55:52.809Z,7.01
2022-12-05T16:58:29.932Z,6.99
2022-12-05T17:01:06.432Z,7.07
2022-12-05T17:03:36.247Z,7.15
2022-12-05T17:06:05.500Z,7.09
2022-12-05T17:08:35.368Z,7.01
2022-12-05T17:11:05.766Z,7.23
2022-12-05T17:13:35.318Z,7.18
2022-12-05T17:16:04.163Z,7.10
2022-12-05T17:18:34.162Z,7.24
2022-12-05T17:21:03.928Z,7.17
2022-12-05T17:23:33.426Z,6.93
2022-12-05T17:26:03.040Z,7.01
2022-12-05T17:28:32.642Z,7.00
2022-12-05T17:31:04.317Z,7.16
2022-12-05T17:33:36.026Z,6.95
2022-12-05T17:36:06.784Z,6.77
2022-12-05T17:38:36.303Z,6.80
2022-12-05T17:41:07.430Z,6.84
2022-12-05T17:43:37.611Z,6.88
2022-12-05T17:46:08.410Z,6.94
2022-12-05T17:48:37.904Z,6.97
2022-12-05T17:51:11.480Z,7.11
2022-12-05T17:53:43.275Z,7.07
2022-12-05T17:56:13.907Z,7.15
2022-12-05T17:58:43.838Z,6.81
2022-12-05T18:01:20.169Z,6.91
2022-12-05T18:03:50.097Z,6.91
2022-12-05T18:06:19.717Z,7.07
2022-12-05T18:08:49.834Z,7.16
2022-12-05T18:11:19.272Z,7.08
2022-12-05T18:13:48.784Z,7.35
2022-12-05T18:16:18.888Z,7.24
2022-12-05T18:18:48.576Z,6.88
2022-12-05T18:21:18.196Z,7.03
2022-12-05T18:23:47.702Z,6.95
2022-12-05T18:26:16.344Z,6.98
2022-12-05T18:28:47.129Z,6.79
2022-12-05T18:31:18.566Z,6.72
2022-12-05T18:33:48.191Z,6.73
2022-12-05T18:36:21.596Z,6.75
2022-12-05T18:38:55.165Z,6.91
2022-12-05T18:41:28.890Z,6.97
2022-12-05T18:43:58.596Z,6.86
2022-12-05T18:46:28.264Z,6.84
2022-12-05T18:49:03.078Z,6.86
2022-12-05T18:51:33.184Z,6.95
2022-12-05T18:54:02.742Z,6.85
2022-12-05T18:56:35.784Z,6.95
2022-12-05T18:59:11.893Z,7.03
2022-12-05T19:01:42.453Z,7.12
2022-12-05T19:04:15.810Z,6.89
2022-12-05T19:06:57.990Z,6.94
2022-12-05T19:09:31.596Z,6.74
2022-12-05T19:12:01.716Z,6.81
2022-12-05T19:14:33.289Z,6.74
2022-12-05T19:17:03.135Z,6.68
2022-12-05T19:19:32.856Z,6.62
2022-12-05T19:22:02.384Z,6.95
2022-12-05T19:24:34.788Z,6.98
2022-12-05T19:27:06.842Z,6.99
2022-12-05T19:29:36.386Z,6.82
2022-12-05T19:32:06.145Z,6.76
2022-12-05T19:34:35.816Z,6.96
2022-12-05T19:37:05.239Z,6.86
2022-12-05T19:39:34.705Z,6.96
2022-12-05T19:42:04.266Z,6.81
2022-12-05T19:44:33.683Z,6.86
2022-12-05T19:47:03.224Z,7.10
2022-12-05T19:49:32.733Z,6.75
2022-12-05T19:52:02.258Z,6.76
2022-12-05T19:54:31.698Z,6.79
2022-12-05T19:57:01.173Z,6.71
2022-12-05T19:59:30.672Z,6.60
2022-12-05T20:02:00.254Z,6.56
2022-12-05T20:04:29.815Z,6.73
2022-12-05T20:06:59.334Z,6.73
2022-12-05T20:09:28.888Z,6.74
2022-12-05T20:11:59.790Z,6.96
2022-12-05T20:14:29.274Z,6.90
2022-12-05T20:16:58.888Z,6.71
2022-12-05T20:19:28.365Z,6.70
2022-12-05T20:21:58.840Z,6.77
2022-12-05T20:24:27.654Z,6.50
2022-12-05T20:26:57.238Z,6.72
2022-12-05T20:29:26.624Z,6.68
2022-12-05T20:31:58.096Z,6.68
2022-12-05T20:34:27.520Z,6.49
2022-12-05T20:36:57.064Z,6.53
2022-12-05T20:39:28.173Z,6.49
2022-12-05T20:41:57.066Z,6.52
2022-12-05T20:44:26.885Z,6.80
2022-12-05T20:46:56.352Z,6.78
2022-12-05T20:49:25.840Z,6.74
2022-12-05T20:51:55.346Z,6.72
2022-12-05T20:54:27.446Z,6.77
2022-12-05T20:57:21.437Z,6.57
2022-12-05T21:00:03.283Z,6.75
2022-12-05T21:02:54.355Z,6.39
2022-12-05T21:05:49.666Z,6.50
2022-12-05T21:08:59.914Z,6.57
2022-12-05T21:12:01.143Z,6.58
2022-12-05T21:15:14.081Z,6.77
2022-12-05T21:18:07.730Z,6.65
2022-12-05T21:21:15.393Z,6.60
2022-12-05T21:24:08.114Z,6.56
2022-12-05T21:26:55.612Z,6.52
2022-12-05T21:29:39.486Z,6.53
2022-12-05T21:32:19.134Z,6.55
2022-12-05T21:35:11.153Z,6.62
2022-12-05T21:37:58.581Z,6.65
2022-12-05T21:40:52.027Z,6.58
2022-12-05T21:43:54.025Z,6.65
2022-12-05T21:47:14.393Z,6.56
2022-12-05T21:50:26.908Z,6.46
2022-12-05T21:53:19.997Z,6.40
2022-12-05T21:56:26.952Z,6.38
2022-12-05T21:59:21.063Z,6.26
2022-12-05T22:02:03.771Z,6.38
2022-12-05T22:04:54.975Z,6.34
2022-12-05T22:07:52.936Z,6.40
2022-12-05T22:10:52.679Z,6.30
2022-12-05T22:13:41.121Z,6.30
2022-12-05T22:16:38.246Z,6.38
2022-12-05T22:19:43.504Z,6.33
2022-12-05T22:22:41.377Z,6.31
2022-12-05T22:25:31.080Z,6.33
2022-12-05T22:31:36.919Z,6.46
2022-12-05T22:34:36.152Z,6.52
2022-12-05T22:37:29.169Z,6.33
2022-12-05T22:40:45.192Z,6.33
2022-12-05T22:43:51.358Z,6.31
2022-12-05T22:47:02.852Z,6.24
2022-12-05T22:50:03.752Z,6.38
2022-12-05T22:52:51.550Z,6.36
2022-12-05T22:58:52.710Z,6.18
2022-12-05T23:01:43.313Z,6.00
2022-12-05T23:04:38.510Z,6.18
2022-12-05T23:07:20.828Z,6.17
2022-12-05T23:10:10.814Z,6.08
2022-12-05T23:15:48.478Z,6.11
2022-12-05T23:19:01.853Z,6.19
2022-12-05T23:22:03.512Z,6.14
2022-12-05T23:24:44.173Z,5.97
2022-12-05T23:27:53.034Z,6.16
2022-12-05T23:30:35.951Z,6.09
2022-12-05T23:33:24.227Z,5.87
2022-12-05T23:36:11.206Z,5.99
2022-12-05T23:39:16.459Z,5.87
2022-12-05T23:42:06.972Z,5.84
2022-12-05T23:45:17.117Z,5.85
2022-12-05T23:48:10.705Z,5.83
2022-12-05T23:51:10.693Z,5.75
2022-12-05T23:54:43.282Z,5.76
